Time,TemperatureF,DewpointF,PressureIn,WindDirection,WindDirectionDegrees,WindSpeedMPH,WindSpeedGustMPH,Humidity,HourlyPrecipIn,Conditions,Clouds,dailyrainin,SoftwareType,DateUTC
2013-04-25 00:01:00,34.5,23.2,30.15,South,190,0.0,0.0,63,0.00,-RA,OVC,0.00,WeatherDisplay:10.37,2013-04-25 06:01:00,
2013-04-25 00:06:00,34.2,23.3,30.15,South,190,2.3,2.3,64,0.00,-RA,OVC,0.00,WeatherDisplay:10.37,2013-04-25 06:06:00,
2013-04-25 00:11:00,33.8,23.3,30.15,South,190,0.0,0.0,65,0.00,-RA,OVC,0.00,WeatherDisplay:10.37,2013-04-25 06:11:00,
2013-04-25 00:16:00,33.6,23.4,30.14,South,190,0.0,0.0,66,0.00,-RA,OVC,0.00,WeatherDisplay:10.37,2013-04-25 06:16:00,
2013-04-25 00:21:00,33.4,23.6,30.14,South,190,0.0,0.0,67,0.00,-RA,OVC,0.00,WeatherDisplay:10.37,2013-04-25 06:21:00,
2013-04-25 00:26:00,33.2,23.1,30.14,South,190,0.0,0.0,66,0.00,-RA,OVC,0.00,WeatherDisplay:10.37,2013-04-25 06:26:00,
2013-04-25 00:31:00,33.0,23.2,30.14,South,190,0.0,0.0,67,0.00,-RA,OVC,0.00,WeatherDisplay:10.37,2013-04-25 06:31:00,
2013-04-25 00:36:00,32.9,23.5,30.14,South,190,0.0,0.0,68,0.00,-RA,OVC,0.00,WeatherDisplay:10.37,2013-04-25 06:36:00,
2013-04-25 00:41:00,32.8,23.4,30.14,South,190,0.0,0.0,68,0.00,-RA,OVC,0.00,WeatherDisplay:10.37,2013-04-25 06:41:00,
2013-04-25 00:46:00,32.8,23.7,30.14,South,190,0.0,0.0,69,0.00,-RA,OVC,0.00,WeatherDisplay:10.37,2013-04-25 06:46:00,
2013-04-25 00:51:00,32.6,23.6,30.14,South,190,0.0,0.0,69,0.00,-RA,OVC,0.00,WeatherDisplay:10.37,2013-04-25 06:51:00,
2013-04-25 00:56:00,32.4,23.4,30.14,South,190,0.0,0.0,69,0.00,-RA,OVC,0.00,WeatherDisplay:10.37,2013-04-25 06:56:00,
2013-04-25 01:01:00,32.4,23.0,30.14,South,190,0.0,0.0,68,0.00,-RA,OVC,0.00,WeatherDisplay:10.37,2013-04-25 07:01:00,
2013-04-25 01:06:00,32.3,21.8,30.14,South,190,0.0,0.0,65,0.00,-RA,OVC,0.00,WeatherDisplay:10.37,2013-04-25 07:06:00,
2013-04-25 01:11:00,32.4,22.7,30.14,South,190,0.0,0.0,67,0.00,-RA,OVC,0.00,WeatherDisplay:10.37,2013-04-25 07:11:00,
2013-04-25 01:16:00,32.5,22.4,30.14,South,190,2.0,2.0,66,0.00,-RA,OVC,0.00,WeatherDisplay:10.37,2013-04-25 07:16:00,
2013-04-25 01:21:00,32.6,21.8,30.14,South,190,0.0,0.0,64,0.00,-RA,OVC,0.00,WeatherDisplay:10.37,2013-04-25 07:21:00,
2013-04-25 01:26:00,32.6,21.0,30.14,South,190,0.0,0.0,62,0.00,-RA,OVC,0.00,WeatherDisplay:10.37,2013-04-25 07:26:00,
2013-04-25 01:31:00,32.9,21.7,30.14,South,190,0.0,0.0,63,0.00,-RA,OVC,0.00,WeatherDisplay:10.37,2013-04-25 07:31:00,
2013-04-25 01:36:00,33.0,22.1,30.12,South,190,0.0,0.0,64,0.00,-RA,OVC,0.00,WeatherDisplay:10.37,2013-04-25 07:36:00,
2013-04-25 01:41:00,32.9,22.0,30.12,South,190,0.0,0.0,64,0.00,-RA,OVC,0.00,WeatherDisplay:10.37,2013-04-25 07:41:00,
2013-04-25 01:46:00,32.7,21.9,30.12,South,190,0.0,0.0,64,0.00,-RA,OVC,0.00,WeatherDisplay:10.37,2013-04-25 07:46:00,
2013-04-25 01:51:00,32.6,21.8,30.12,South,190,0.0,0.0,64,0.00,-RA,OVC,0.00,WeatherDisplay:10.37,2013-04-25 07:51:00,
2013-04-25 01:56:00,32.5,21.7,30.12,South,190,0.0,0.0,64,0.00,-RA,OVC,0.00,WeatherDisplay:10.37,2013-04-25 07:56:00,
2013-04-25 02:01:00,32.4,21.6,30.12,South,190,0.0,0.0,64,0.00,-RA,OVC,0.00,WeatherDisplay:10.37,2013-04-25 08:01:00,
2013-04-25 02:06:00,32.2,21.4,30.12,South,190,0.0,0.0,64,0.00,-RA,OVC,0.00,WeatherDisplay:10.37,2013-04-25 08:06:00,
2013-04-25 02:11:00,32.0,21.9,30.12,South,190,1.1,0.0,66,0.00,-RA,OVC,0.00,WeatherDisplay:10.37,2013-04-25 08:11:00,
2013-04-25 02:16:00,31.7,21.6,30.12,South,190,0.0,0.0,66,0.00,-RA,OVC,0.00,WeatherDisplay:10.37,2013-04-25 08:16:00,
2013-04-25 02:21:00,31.5,21.4,30.12,South,190,0.0,0.0,66,0.00,-RA,OVC,0.00,WeatherDisplay:10.37,2013-04-25 08:21:00,
2013-04-25 02:26:00,31.5,21.8,30.12,South,190,0.0,0.0,67,0.00,-RA,OVC,0.00,WeatherDisplay:10.37,2013-04-25 08:26:00,
2013-04-25 02:31:00,31.4,21.3,30.12,South,190,0.0,0.0,66,0.00,-RA,OVC,0.00,WeatherDisplay:10.37,2013-04-25 08:31:00,
2013-04-25 02:36:00,31.5,21.4,30.12,South,190,1.1,0.0,66,0.00,-RA,OVC,0.00,WeatherDisplay:10.37,2013-04-25 08:36:00,
2013-04-25 02:41:00,31.4,21.0,30.12,South,190,0.0,0.0,65,0.00,-RA,OVC,0.00,WeatherDisplay:10.37,2013-04-25 08:41:00,
2013-04-25 02:46:00,31.2,20.8,30.12,South,190,0.0,0.0,65,0.00,-RA,OVC,0.00,WeatherDisplay:10.37,2013-04-25 08:46:00,
2013-04-25 02:51:00,31.0,21.0,30.12,South,190,1.1,0.0,66,0.00,-RA,OVC,0.00,WeatherDisplay:10.37,2013-04-25 08:51:00,
2013-04-25 02:56:00,31.0,20.6,30.12,South,190,0.0,0.0,65,0.00,-RA,OVC,0.00,WeatherDisplay:10.37,2013-04-25 08:56:00,
2013-04-25 03:01:00,31.2,21.2,30.12,South,190,1.1,0.0,66,0.00,-RA,OVC,0.00,WeatherDisplay:10.37,2013-04-25 09:01:00,
2013-04-25 03:06:00,31.3,20.5,30.12,South,190,1.1,0.0,64,0.00,-RA,OVC,0.00,WeatherDisplay:10.37,2013-04-25 09:06:00,
2013-04-25 03:11:00,31.5,19.6,30.12,South,190,0.0,0.0,61,0.00,-RA,OVC,0.00,WeatherDisplay:10.37,2013-04-25 09:11:00,
2013-04-25 03:16:00,31.6,20.4,30.12,South,190,0.0,0.0,63,0.00,-RA,OVC,0.00,WeatherDisplay:10.37,2013-04-25 09:16:00,
2013-04-25 03:21:00,31.7,19.4,30.12,South,173,3.5,3.5,60,0.00,-RA,OVC,0.00,WeatherDisplay:10.37,2013-04-25 09:21:00,
2013-04-25 03:26:00,32.1,19.8,30.12,South,173,1.1,0.0,60,0.00,-RA,OVC,0.00,WeatherDisplay:10.37,2013-04-25 09:26:00,
2013-04-25 03:31:00,32.3,19.6,30.12,South,173,0.0,0.0,59,0.00,-RA,OVC,0.00,WeatherDisplay:10.37,2013-04-25 09:31:00,
2013-04-25 03:36:00,32.3,19.6,30.12,South,173,3.5,3.5,59,0.00,-RA,OVC,0.00,WeatherDisplay:10.37,2013-04-25 09:36:00,
2013-04-25 03:41:00,32.5,19.3,30.12,South,172,0.0,0.0,58,0.00,-RA,OVC,0.00,WeatherDisplay:10.37,2013-04-25 09:41:00,
2013-04-25 03:46:00,32.6,19.0,30.12,South,172,0.0,0.1,57,0.00,-RA,OVC,0.00,WeatherDisplay:10.37,2013-04-25 09:46:00,
2013-04-25 03:51:00,32.9,19.3,30.12,SSE,166,0.0,0.0,57,0.00,-RA,OVC,0.00,WeatherDisplay:10.37,2013-04-25 09:51:00,
2013-04-25 03:56:00,32.9,19.3,30.12,SSE,166,2.3,2.3,57,0.00,-RA,OVC,0.00,WeatherDisplay:10.37,2013-04-25 09:56:00,
2013-04-25 04:01:00,32.8,19.6,30.12,SSE,166,0.0,0.0,58,0.00,-RA,OVC,0.00,WeatherDisplay:10.37,2013-04-25 10:01:00,
2013-04-25 04:06:00,32.6,19.0,30.12,SSE,166,0.0,0.0,57,0.00,-RA,OVC,0.00,WeatherDisplay:10.37,2013-04-25 10:06:00,
2013-04-25 04:11:00,32.3,18.8,30.12,SSE,166,0.0,0.0,57,0.00,-RA,OVC,0.00,WeatherDisplay:10.37,2013-04-25 10:11:00,
2013-04-25 04:16:00,32.0,18.9,30.12,SSE,166,0.0,0.0,58,0.00,-RA,OVC,0.00,WeatherDisplay:10.37,2013-04-25 10:16:00,
2013-04-25 04:21:00,31.4,19.1,30.12,SSE,166,3.5,3.5,60,0.00,-RA,OVC,0.00,WeatherDisplay:10.37,2013-04-25 10:21:00,
2013-04-25 04:26:00,31.1,18.8,30.12,SSE,166,0.0,0.0,60,0.00,-RA,OVC,0.00,WeatherDisplay:10.37,2013-04-25 10:26:00,
2013-04-25 04:31:00,30.7,19.2,30.12,SSE,166,0.0,0.0,62,0.00,-RA,OVC,0.00,WeatherDisplay:10.37,2013-04-25 10:31:00,
2013-04-25 04:36:00,30.5,19.4,30.12,SSE,166,2.3,2.3,63,0.00,-RA,OVC,0.00,WeatherDisplay:10.37,2013-04-25 10:36:00,
2013-04-25 04:41:00,30.3,19.6,30.09,SSE,166,0.0,0.0,64,0.00,-RA,OVC,0.00,WeatherDisplay:10.37,2013-04-25 10:41:00,
2013-04-25 04:46:00,30.2,19.8,30.09,SSE,166,0.0,0.0,65,0.00,-RA,OVC,0.00,WeatherDisplay:10.37,2013-04-25 10:46:00,
2013-04-25 04:51:00,30.1,19.7,30.09,SSE,166,0.0,0.0,65,0.00,-RA,OVC,0.00,WeatherDisplay:10.37,2013-04-25 10:51:00,
2013-04-25 04:56:00,30.1,20.1,30.09,SSE,166,0.0,0.0,66,0.00,-RA,OVC,0.00,WeatherDisplay:10.37,2013-04-25 10:56:00,
2013-04-25 05:01:00,29.9,19.9,30.09,SSE,166,0.0,0.0,66,0.00,-RA,OVC,0.00,WeatherDisplay:10.37,2013-04-25 11:01:00,
2013-04-25 05:06:00,29.8,19.8,30.08,SSE,166,0.0,0.0,66,0.00,-RA,OVC,0.00,WeatherDisplay:10.37,2013-04-25 11:06:00,
2013-04-25 05:11:00,29.7,19.4,30.08,SSE,166,0.0,0.0,65,0.00,-RA,OVC,0.00,WeatherDisplay:10.37,2013-04-25 11:11:00,
2013-04-25 05:16:00,29.7,19.0,30.08,SSE,166,2.3,2.3,64,0.00,-RA,OVC,0.00,WeatherDisplay:10.37,2013-04-25 11:16:00,
2013-04-25 05:21:00,29.7,19.0,30.08,SSE,166,0.0,0.0,64,0.00,-RA,OVC,0.00,WeatherDisplay:10.37,2013-04-25 11:21:00,
2013-04-25 05:26:00,29.6,19.3,30.08,SSE,166,0.0,0.0,65,0.00,-RA,OVC,0.00,WeatherDisplay:10.37,2013-04-25 11:26:00,
2013-04-25 05:31:00,29.4,19.4,30.08,SSE,166,2.3,0.0,66,0.00,-RA,OVC,0.00,WeatherDisplay:10.37,2013-04-25 11:31:00,
2013-04-25 05:36:00,29.4,18.7,30.08,SSE,166,2.3,2.3,64,0.00,-RA,OVC,0.00,WeatherDisplay:10.37,2013-04-25 11:36:00,
2013-04-25 05:41:00,29.8,18.7,30.08,SSE,166,0.0,0.0,63,0.00,-RA,OVC,0.00,WeatherDisplay:10.37,2013-04-25 11:41:00,
2013-04-25 05:46:00,30.0,18.5,30.08,SSE,166,0.0,0.0,62,0.00,-RA,OVC,0.00,WeatherDisplay:10.37,2013-04-25 11:46:00,
2013-04-25 05:51:00,30.1,18.6,30.08,SSE,166,0.0,0.0,62,0.00,-RA,OVC,0.00,WeatherDisplay:10.37,2013-04-25 11:51:00,
2013-04-25 05:56:00,30.2,18.0,30.08,SSE,166,0.0,0.0,60,0.00,-RA,OVC,0.00,WeatherDisplay:10.37,2013-04-25 11:56:00,
2013-04-25 06:01:00,30.2,18.4,30.08,SSE,166,1.1,1.1,61,0.00,-RA,OVC,0.00,WeatherDisplay:10.37,2013-04-25 12:01:00,
2013-04-25 06:06:00,30.0,18.5,30.08,SSE,166,0.0,0.0,62,0.00,-RA,OVC,0.00,WeatherDisplay:10.37,2013-04-25 12:06:00,
2013-04-25 06:11:00,30.0,18.9,30.08,South,174,3.5,3.5,63,0.00,-RA,OVC,0.00,WeatherDisplay:10.37,2013-04-25 12:11:00,
2013-04-25 06:16:00,29.7,19.4,30.08,South,174,0.0,0.0,65,0.00,-RA,OVC,0.00,WeatherDisplay:10.37,2013-04-25 12:16:00,
2013-04-25 06:21:00,29.8,19.5,30.08,South,174,1.1,0.0,65,0.00,-RA,OVC,0.00,WeatherDisplay:10.37,2013-04-25 12:21:00,
2013-04-25 06:26:00,29.7,19.4,30.08,South,174,0.0,0.0,65,0.00,-RA,OVC,0.00,WeatherDisplay:10.37,2013-04-25 12:26:00,
2013-04-25 06:31:00,29.6,19.6,30.08,South,174,0.0,0.0,66,0.00,-RA,OVC,0.00,WeatherDisplay:10.37,2013-04-25 12:31:00,
2013-04-25 06:36:00,29.5,19.2,30.08,South,174,0.0,0.0,65,0.00,-RA,OVC,0.00,WeatherDisplay:10.37,2013-04-25 12:36:00,
2013-04-25 06:41:00,29.6,19.3,30.08,South,174,0.0,0.0,65,0.00,-RA,OVC,0.00,WeatherDisplay:10.37,2013-04-25 12:41:00,
2013-04-25 06:46:00,29.8,19.8,30.08,South,174,0.0,0.0,66,0.00,-RA,OVC,0.00,WeatherDisplay:10.37,2013-04-25 12:46:00,
2013-04-25 06:51:00,29.8,19.8,30.08,South,174,0.0,0.0,66,0.00,-RA,OVC,0.00,WeatherDisplay:10.37,2013-04-25 12:51:00,
2013-04-25 06:56:00,30.0,20.0,30.08,South,174,0.0,0.0,66,0.00,-RA,OVC,0.00,WeatherDisplay:10.37,2013-04-25 12:56:00,
2013-04-25 07:01:00,30.4,20.7,30.08,South,174,1.1,0.0,67,0.00,-RA,OVC,0.00,WeatherDisplay:10.37,2013-04-25 13:01:00,
2013-04-25 07:06:00,31.0,21.3,30.08,South,174,0.0,0.0,67,0.00,-RA,OVC,0.00,WeatherDisplay:10.37,2013-04-25 13:06:00,
2013-04-25 07:11:00,31.9,21.5,30.08,South,174,0.0,0.0,65,0.00,-RA,OVC,0.00,WeatherDisplay:10.37,2013-04-25 13:11:00,
2013-04-25 07:16:00,32.6,21.4,30.08,South,174,0.0,0.0,63,0.00,-RA,OVC,0.00,WeatherDisplay:10.37,2013-04-25 13:16:00,
2013-04-25 07:21:00,33.3,22.4,30.08,South,174,0.0,0.0,64,0.00,-RA,OVC,0.00,WeatherDisplay:10.37,2013-04-25 13:21:00,
2013-04-25 07:26:00,34.0,21.6,30.08,South,174,0.0,0.0,60,0.00,-RA,OVC,0.00,WeatherDisplay:10.37,2013-04-25 13:26:00,
2013-04-25 07:31:00,35.0,21.3,30.08,South,174,1.1,0.0,57,0.00,-RA,OVC,0.00,WeatherDisplay:10.37,2013-04-25 13:31:00,
2013-04-25 07:36:00,36.2,21.1,30.08,ESE,113,2.3,2.3,54,0.00,-RA,OVC,0.00,WeatherDisplay:10.37,2013-04-25 13:36:00,
2013-04-25 07:41:00,37.4,19.5,30.08,ESE,113,1.1,1.1,48,0.00,-RA,OVC,0.00,WeatherDisplay:10.37,2013-04-25 13:41:00,
2013-04-25 07:46:00,38.5,18.4,30.08,ESE,112,3.5,3.5,44,0.00,-RA,OVC,0.00,WeatherDisplay:10.37,2013-04-25 13:46:00,
2013-04-25 07:51:00,39.6,18.4,30.08,ESE,112,1.1,0.0,42,0.00,-RA,OVC,0.00,WeatherDisplay:10.37,2013-04-25 13:51:00,
2013-04-25 07:56:00,41.1,19.7,30.08,ESE,112,0.0,0.1,42,0.00,-RA,OVC,0.00,WeatherDisplay:10.37,2013-04-25 13:56:00,
2013-04-25 08:01:00,42.2,21.8,30.08,SE,130,4.0,4.0,44,0.00,-RA,OVC,0.00,WeatherDisplay:10.37,2013-04-25 14:01:00,
2013-04-25 08:06:00,42.4,22.5,30.08,SE,143,3.5,3.5,45,0.00,-RA,OVC,0.00,WeatherDisplay:10.37,2013-04-25 14:06:00,
2013-04-25 08:11:00,41.9,19.9,30.08,South,184,5.8,5.8,41,0.00,-RA,OVC,0.00,WeatherDisplay:10.37,2013-04-25 14:11:00,
2013-04-25 08:16:00,41.8,19.8,30.08,South,184,1.1,0.0,41,0.00,-RA,OVC,0.00,WeatherDisplay:10.37,2013-04-25 14:16:00,
2013-04-25 08:21:00,42.4,19.2,30.08,South,184,1.1,0.0,39,0.00,-RA,OVC,0.00,WeatherDisplay:10.37,2013-04-25 14:21:00,
2013-04-25 08:26:00,42.9,18.4,30.08,South,184,1.1,0.0,37,0.00,-RA,OVC,0.00,WeatherDisplay:10.37,2013-04-25 14:26:00,
2013-04-25 08:31:00,43.4,18.8,30.08,South,184,0.0,0.0,37,0.00,-RA,OVC,0.00,WeatherDisplay:10.37,2013-04-25 14:31:00,
2013-04-25 08:36:00,44.1,19.5,30.08,South,184,0.0,0.0,37,0.00,-RA,OVC,0.00,WeatherDisplay:10.37,2013-04-25 14:36:00,
2013-04-25 08:41:00,44.7,18.7,30.08,South,184,3.5,0.0,35,0.00,-RA,OVC,0.00,WeatherDisplay:10.37,2013-04-25 14:41:00,
2013-04-25 08:46:00,45.5,20.1,30.08,South,184,0.0,0.1,36,0.00,-RA,OVC,0.00,WeatherDisplay:10.37,2013-04-25 14:46:00,
2013-04-25 08:51:00,46.0,19.2,30.08,South,184,1.0,0.0,34,0.00,-RA,OVC,0.00,WeatherDisplay:10.37,2013-04-25 14:51:00,
2013-04-25 08:56:00,46.4,18.8,30.08,South,184,3.5,3.5,33,0.00,-RA,OVC,0.00,WeatherDisplay:10.37,2013-04-25 14:56:00,
2013-04-25 09:01:00,46.7,20.5,30.08,SSW,203,2.3,2.3,35,0.00,-RA,OVC,0.00,WeatherDisplay:10.37,2013-04-25 15:01:00,
2013-04-25 09:06:00,47.4,20.4,30.08,SW,223,3.5,3.5,34,0.00,-RA,OVC,0.00,WeatherDisplay:10.37,2013-04-25 15:06:00,
2013-04-25 09:11:00,48.1,21.0,30.08,SW,236,3.5,3.5,34,0.00,-RA,OVC,0.00,WeatherDisplay:10.37,2013-04-25 15:11:00,
2013-04-25 09:16:00,48.7,20.8,30.08,WSW,239,3.5,3.5,33,0.00,-RA,OVC,0.00,WeatherDisplay:10.37,2013-04-25 15:16:00,
2013-04-25 09:21:00,49.2,22.0,30.08,West,277,1.1,1.1,34,0.00,-RA,OVC,0.00,WeatherDisplay:10.37,2013-04-25 15:21:00,
2013-04-25 09:26:00,49.8,18.8,30.08,WNW,302,3.5,3.5,29,0.00,-RA,OVC,0.00,WeatherDisplay:10.37,2013-04-25 15:26:00,
2013-04-25 09:31:00,50.4,17.6,30.08,NNW,337,3.5,3.5,27,0.00,-RA,OVC,0.00,WeatherDisplay:10.37,2013-04-25 15:31:00,
2013-04-25 09:36:00,50.7,17.0,30.06,NNE,17,3.5,3.5,26,0.00,-RA,OVC,0.00,WeatherDisplay:10.37,2013-04-25 15:36:00,
2013-04-25 09:41:00,50.9,17.2,30.06,NNE,15,2.3,0.0,26,0.00,-RA,OVC,0.00,WeatherDisplay:10.37,2013-04-25 15:41:00,
2013-04-25 09:46:00,51.3,16.6,30.06,NNE,15,2.3,0.0,25,0.00,-RA,OVC,0.00,WeatherDisplay:10.37,2013-04-25 15:46:00,
2013-04-25 09:51:00,51.6,16.9,30.06,NE,34,3.5,3.5,25,0.00,-RA,OVC,0.00,WeatherDisplay:10.37,2013-04-25 15:51:00,
2013-04-25 09:56:00,51.6,17.8,30.06,NNE,14,3.5,3.5,26,0.00,-RA,OVC,0.00,WeatherDisplay:10.37,2013-04-25 15:56:00,
2013-04-25 10:01:00,52.1,16.4,30.06,NNE,32,4.6,4.6,24,0.00,-RA,OVC,0.00,WeatherDisplay:10.37,2013-04-25 16:01:00,
2013-04-25 10:06:00,52.8,17.9,30.06,NNE,32,2.3,2.3,25,0.00,-RA,OVC,0.00,WeatherDisplay:10.37,2013-04-25 16:06:00,
2013-04-25 10:11:00,53.6,17.6,30.06,NNE,32,3.5,3.5,24,0.00,-RA,OVC,0.00,WeatherDisplay:10.37,2013-04-25 16:11:00,
2013-04-25 10:16:00,53.9,13.7,30.06,NNE,24,5.8,5.8,20,0.00,-RA,OVC,0.00,WeatherDisplay:10.37,2013-04-25 16:16:00,
2013-04-25 10:21:00,53.9,14.8,30.06,NE,39,3.0,3.0,21,0.00,-RA,OVC,0.00,WeatherDisplay:10.37,2013-04-25 16:21:00,
2013-04-25 10:26:00,54.1,12.7,30.06,NNE,23,5.8,5.8,19,0.00,-RA,OVC,0.00,WeatherDisplay:10.37,2013-04-25 16:26:00,
2013-04-25 10:31:00,54.0,12.6,30.06,NNE,13,1.1,0.0,19,0.00,-RA,OVC,0.00,WeatherDisplay:10.37,2013-04-25 16:31:00,
2013-04-25 10:36:00,54.8,13.3,30.06,NNE,30,3.5,3.5,19,0.00,-RA,OVC,0.00,WeatherDisplay:10.37,2013-04-25 16:36:00,
2013-04-25 10:41:00,55.5,13.8,30.06,NNW,331,6.9,6.9,19,0.00,-RA,OVC,0.00,WeatherDisplay:10.37,2013-04-25 16:41:00,
2013-04-25 10:46:00,55.9,12.9,30.05,NW,326,3.5,3.5,18,0.00,-RA,OVC,0.00,WeatherDisplay:10.37,2013-04-25 16:46:00,
2013-04-25 10:51:00,56.3,15.7,30.05,NNW,327,3.5,3.5,20,0.00,-RA,OVC,0.00,WeatherDisplay:10.37,2013-04-25 16:51:00,
2013-04-25 10:56:00,56.7,13.6,30.05,North,355,4.6,4.6,18,0.00,-RA,OVC,0.00,WeatherDisplay:10.37,2013-04-25 16:56:00,
2013-04-25 11:01:00,57.0,13.8,30.05,North,355,0.0,0.1,18,0.00,-RA,OVC,0.00,WeatherDisplay:10.37,2013-04-25 17:01:00,
2013-04-25 11:06:00,57.5,14.3,30.05,NNW,348,4.0,4.0,18,0.00,-RA,OVC,0.00,WeatherDisplay:10.37,2013-04-25 17:06:00,
2013-04-25 11:11:00,57.6,13.0,30.05,NNW,346,3.5,3.5,17,0.00,-RA,OVC,0.00,WeatherDisplay:10.37,2013-04-25 17:11:00,
2013-04-25 11:16:00,57.8,13.2,30.05,WSW,238,6.9,6.9,17,0.00,-RA,OVC,0.00,WeatherDisplay:10.37,2013-04-25 17:16:00,
2013-04-25 11:21:00,57.5,16.7,30.05,SSW,213,3.5,3.5,20,0.00,-RA,OVC,0.00,WeatherDisplay:10.37,2013-04-25 17:21:00,
2013-04-25 11:26:00,57.9,14.6,30.04,WSW,238,3.5,3.5,18,0.00,-RA,OVC,0.00,WeatherDisplay:10.37,2013-04-25 17:26:00,
2013-04-25 11:31:00,58.5,17.5,30.04,WSW,251,3.5,3.5,20,0.00,-RA,OVC,0.00,WeatherDisplay:10.37,2013-04-25 17:31:00,
2013-04-25 11:36:00,58.9,15.4,30.03,West,268,6.9,6.9,18,0.00,-RA,OVC,0.00,WeatherDisplay:10.37,2013-04-25 17:36:00,
2013-04-25 11:41:00,58.9,16.7,30.03,West,275,3.5,3.5,19,0.00,-RA,OVC,0.00,WeatherDisplay:10.37,2013-04-25 17:41:00,
2013-04-25 11:46:00,58.8,15.3,30.03,West,269,4.6,4.6,18,0.00,-RA,OVC,0.00,WeatherDisplay:10.37,2013-04-25 17:46:00,
2013-04-25 11:51:00,58.9,16.7,30.03,West,279,3.5,3.5,19,0.00,-RA,OVC,0.00,WeatherDisplay:10.37,2013-04-25 17:51:00,
2013-04-25 11:56:00,59.3,15.7,30.03,WNW,290,4.6,4.6,18,0.00,-RA,OVC,0.00,WeatherDisplay:10.37,2013-04-25 17:56:00,
2013-04-25 12:01:00,59.2,18.1,30.03,SW,215,4.6,4.6,20,0.00,-RA,OVC,0.00,WeatherDisplay:10.37,2013-04-25 18:01:00,
2013-04-25 12:06:00,59.4,15.8,30.03,West,277,9.2,9.2,18,0.00,-RA,OVC,0.00,WeatherDisplay:10.37,2013-04-25 18:06:00,
2013-04-25 12:11:00,59.6,16.0,30.03,West,268,3.5,3.5,18,0.00,-RA,OVC,0.00,WeatherDisplay:10.37,2013-04-25 18:11:00,
2013-04-25 12:16:00,59.7,14.8,30.03,WNW,284,4.6,4.6,17,0.00,-RA,OVC,0.00,WeatherDisplay:10.37,2013-04-25 18:16:00,
2013-04-25 12:21:00,59.8,12.0,30.03,West,278,2.3,2.3,15,0.00,-RA,OVC,0.00,WeatherDisplay:10.37,2013-04-25 18:21:00,
2013-04-25 12:26:00,60.1,12.2,30.03,NW,309,6.9,6.9,15,0.00,-RA,OVC,0.00,WeatherDisplay:10.37,2013-04-25 18:26:00,
2013-04-25 12:31:00,60.0,13.6,30.03,NW,308,4.6,4.6,16,0.00,-RA,OVC,0.00,WeatherDisplay:10.37,2013-04-25 18:31:00,
2013-04-25 12:36:00,60.3,13.9,30.01,SW,228,5.8,5.8,16,0.00,-RA,OVC,0.00,WeatherDisplay:10.37,2013-04-25 18:36:00,
2013-04-25 12:41:00,60.8,15.6,30.01,WSW,237,3.5,3.5,17,0.00,-RA,OVC,0.00,WeatherDisplay:10.37,2013-04-25 18:41:00,
2013-04-25 12:46:00,61.1,15.9,30.01,West,281,3.5,3.5,17,0.00,-RA,OVC,0.00,WeatherDisplay:10.37,2013-04-25 18:46:00,
2013-04-25 12:51:00,61.6,16.3,30.01,NW,321,6.9,6.9,17,0.00,-RA,OVC,0.00,WeatherDisplay:10.37,2013-04-25 18:51:00,
2013-04-25 12:56:00,61.4,17.5,30.01,NNW,348,6.9,6.9,18,0.00,-RA,OVC,0.00,WeatherDisplay:10.37,2013-04-25 18:56:00,
2013-04-25 13:01:00,61.1,13.0,30.01,NNW,328,6.9,6.9,15,0.00,-RA,OVC,0.00,WeatherDisplay:10.37,2013-04-25 19:01:00,
2013-04-25 13:06:00,61.1,14.5,30.01,SSW,196,3.5,3.5,16,0.00,-RA,OVC,0.00,WeatherDisplay:10.37,2013-04-25 19:06:00,
2013-04-25 13:11:00,61.0,14.4,30.01,South,178,1.1,1.1,16,0.00,-RA,OVC,0.00,WeatherDisplay:10.37,2013-04-25 19:11:00,
2013-04-25 13:16:00,61.6,16.3,30.01,West,281,4.6,4.6,17,0.00,-RA,OVC,0.00,WeatherDisplay:10.37,2013-04-25 19:16:00,
2013-04-25 13:21:00,62.0,13.8,30.01,NW,304,6.9,6.9,15,0.00,-RA,OVC,0.00,WeatherDisplay:10.37,2013-04-25 19:21:00,
2013-04-25 13:26:00,62.1,16.7,30.01,NW,313,4.6,4.6,17,0.00,-RA,OVC,0.00,WeatherDisplay:10.37,2013-04-25 19:26:00,
2013-04-25 13:31:00,62.5,17.0,30.01,West,264,3.5,3.5,17,0.00,-RA,OVC,0.00,WeatherDisplay:10.37,2013-04-25 19:31:00,
2013-04-25 13:36:00,62.5,14.2,30.01,SW,225,9.2,9.2,15,0.00,-RA,OVC,0.00,WeatherDisplay:10.37,2013-04-25 19:36:00,
2013-04-25 13:41:00,62.5,17.0,30.01,WSW,252,4.0,4.0,17,0.00,-RA,OVC,0.00,WeatherDisplay:10.37,2013-04-25 19:41:00,
2013-04-25 13:46:00,62.6,15.7,30.01,West,281,6.9,6.9,16,0.00,-RA,OVC,0.00,WeatherDisplay:10.37,2013-04-25 19:46:00,
2013-04-25 13:51:00,63.0,16.0,30.01,West,261,5.8,5.8,16,0.00,-RA,OVC,0.00,WeatherDisplay:10.37,2013-04-25 19:51:00,
2013-04-25 13:56:00,63.2,16.2,30.01,West,271,3.5,3.5,16,0.00,-RA,OVC,0.00,WeatherDisplay:10.37,2013-04-25 19:56:00,
2013-04-25 14:01:00,63.1,16.1,30.01,SSW,193,6.9,6.9,16,0.00,-RA,OVC,0.00,WeatherDisplay:10.37,2013-04-25 20:01:00,
2013-04-25 14:06:00,62.6,14.2,29.97,WSW,246,8.1,8.1,15,0.00,-RA,OVC,0.00,WeatherDisplay:10.37,2013-04-25 20:06:00,
2013-04-25 14:11:00,62.5,15.6,29.97,WSW,238,5.8,5.8,16,0.00,-RA,OVC,0.00,WeatherDisplay:10.37,2013-04-25 20:11:00,
2013-04-25 14:16:00,62.7,15.8,29.97,WNW,303,2.0,2.0,16,0.00,-RA,OVC,0.00,WeatherDisplay:10.37,2013-04-25 20:16:00,
2013-04-25 14:21:00,62.9,17.4,29.97,WSW,238,5.8,5.8,17,0.00,-RA,OVC,0.00,WeatherDisplay:10.37,2013-04-25 20:21:00,
2013-04-25 14:26:00,62.9,16.0,29.97,WNW,288,3.5,3.5,16,0.00,-RA,OVC,0.00,WeatherDisplay:10.37,2013-04-25 20:26:00,
2013-04-25 14:31:00,62.9,16.0,29.97,NW,306,4.6,4.6,16,0.00,-RA,OVC,0.00,WeatherDisplay:10.37,2013-04-25 20:31:00,
2013-04-25 14:36:00,62.8,15.9,29.97,NW,305,2.3,2.4,16,0.00,-RA,OVC,0.00,WeatherDisplay:10.37,2013-04-25 20:36:00,
2013-04-25 14:41:00,62.7,15.8,29.97,West,265,5.8,5.8,16,0.00,-RA,OVC,0.00,WeatherDisplay:10.37,2013-04-25 20:41:00,
2013-04-25 14:46:00,62.4,15.6,29.97,West,265,3.5,3.5,16,0.00,-RA,OVC,0.00,WeatherDisplay:10.37,2013-04-25 20:46:00,
2013-04-25 14:51:00,62.3,15.5,29.97,West,263,3.5,3.5,16,0.00,-RA,OVC,0.00,WeatherDisplay:10.37,2013-04-25 20:51:00,
2013-04-25 14:56:00,62.3,16.9,29.97,West,263,3.5,3.5,17,0.00,-RA,OVC,0.00,WeatherDisplay:10.37,2013-04-25 20:56:00,
2013-04-25 15:01:00,62.5,17.0,29.97,West,263,0.0,0.3,17,0.00,-RA,OVC,0.00,WeatherDisplay:10.37,2013-04-25 21:01:00,
2013-04-25 15:06:00,62.7,15.8,29.97,WSW,254,3.5,3.5,16,0.00,-RA,OVC,0.00,WeatherDisplay:10.37,2013-04-25 21:06:00,
2013-04-25 15:11:00,62.6,18.4,29.97,WSW,246,6.0,6.0,18,0.00,-RA,OVC,0.00,WeatherDisplay:10.37,2013-04-25 21:11:00,
2013-04-25 15:16:00,62.8,17.3,29.97,WSW,252,3.5,3.5,17,0.00,-RA,OVC,0.00,WeatherDisplay:10.37,2013-04-25 21:16:00,
2013-04-25 15:21:00,63.0,18.8,29.97,NW,320,3.5,3.5,18,0.00,-RA,OVC,0.00,WeatherDisplay:10.37,2013-04-25 21:21:00,
2013-04-25 15:26:00,63.2,17.6,29.94,NW,307,1.1,1.1,17,0.00,-RA,OVC,0.00,WeatherDisplay:10.37,2013-04-25 21:26:00,
2013-04-25 15:31:00,63.3,17.7,29.94,NW,313,3.5,3.5,17,0.00,-RA,OVC,0.00,WeatherDisplay:10.37,2013-04-25 21:31:00,
2013-04-25 15:36:00,63.5,19.2,29.94,WNW,301,1.1,2.3,18,0.00,-RA,OVC,0.00,WeatherDisplay:10.37,2013-04-25 21:36:00,
2013-04-25 15:41:00,63.5,17.8,29.94,West,278,2.3,2.3,17,0.00,-RA,OVC,0.00,WeatherDisplay:10.37,2013-04-25 21:41:00,
2013-04-25 15:46:00,63.4,19.1,29.94,West,267,3.5,3.5,18,0.00,-RA,OVC,0.00,WeatherDisplay:10.37,2013-04-25 21:46:00,
2013-04-25 15:51:00,63.4,19.1,29.94,NW,315,4.6,4.6,18,0.00,-RA,OVC,0.00,WeatherDisplay:10.37,2013-04-25 21:51:00,
2013-04-25 15:56:00,63.7,18.0,29.94,West,263,3.5,3.5,17,0.00,-RA,OVC,0.00,WeatherDisplay:10.37,2013-04-25 21:56:00,
2013-04-25 16:01:00,64.1,19.7,29.94,SW,226,3.5,3.5,18,0.00,-RA,OVC,0.00,WeatherDisplay:10.37,2013-04-25 22:01:00,
2013-04-25 16:06:00,64.3,19.8,29.94,SW,223,1.1,1.1,18,0.00,-RA,OVC,0.00,WeatherDisplay:10.37,2013-04-25 22:06:00,
2013-04-25 16:11:00,64.1,19.7,29.94,SW,222,5.8,5.8,18,0.00,-RA,OVC,0.00,WeatherDisplay:10.37,2013-04-25 22:11:00,
2013-04-25 16:16:00,63.9,19.5,29.94,NNE,22,6.9,6.9,18,0.00,-RA,OVC,0.00,WeatherDisplay:10.37,2013-04-25 22:16:00,
2013-04-25 16:21:00,63.7,18.0,29.94,North,351,5.0,5.0,17,0.00,-RA,OVC,0.00,WeatherDisplay:10.37,2013-04-25 22:21:00,
2013-04-25 16:26:00,63.4,19.1,29.94,West,275,3.5,3.5,18,0.00,-RA,OVC,0.00,WeatherDisplay:10.37,2013-04-25 22:26:00,
2013-04-25 16:31:00,63.2,18.9,29.94,West,275,3.5,0.0,18,0.00,-RA,OVC,0.00,WeatherDisplay:10.37,2013-04-25 22:31:00,
2013-04-25 16:36:00,63.2,20.2,29.94,West,276,3.5,3.5,19,0.00,-RA,OVC,0.00,WeatherDisplay:10.37,2013-04-25 22:36:00,
2013-04-25 16:41:00,63.1,18.9,29.94,West,276,3.5,3.5,18,0.00,-RA,OVC,0.00,WeatherDisplay:10.37,2013-04-25 22:41:00,
2013-04-25 16:46:00,63.0,18.8,29.94,West,276,2.3,2.3,18,0.00,-RA,OVC,0.00,WeatherDisplay:10.37,2013-04-25 22:46:00,
2013-04-25 16:51:00,63.1,22.5,29.94,West,276,1.1,0.0,21,0.00,-RA,OVC,0.00,WeatherDisplay:10.37,2013-04-25 22:51:00,
2013-04-25 16:56:00,63.1,20.1,29.94,West,269,3.5,3.5,19,0.00,-RA,OVC,0.00,WeatherDisplay:10.37,2013-04-25 22:56:00,
2013-04-25 17:01:00,63.0,18.8,29.94,West,267,3.5,3.5,18,0.00,-RA,OVC,0.00,WeatherDisplay:10.37,2013-04-25 23:01:00,
2013-04-25 17:06:00,62.7,19.8,29.94,West,266,3.5,3.5,19,0.00,-RA,OVC,0.00,WeatherDisplay:10.37,2013-04-25 23:06:00,
2013-04-25 17:11:00,62.7,19.8,29.94,West,266,2.3,2.3,19,0.00,-RA,OVC,0.00,WeatherDisplay:10.37,2013-04-25 23:11:00,
2013-04-25 17:16:00,62.8,21.1,29.93,West,267,3.5,3.5,20,0.00,-RA,OVC,0.00,WeatherDisplay:10.37,2013-04-25 23:16:00,
2013-04-25 17:21:00,62.8,22.2,29.93,SSW,206,5.8,5.8,21,0.00,-RA,OVC,0.00,WeatherDisplay:10.37,2013-04-25 23:21:00,
2013-04-25 17:26:00,62.7,22.2,29.93,SSW,204,3.5,3.5,21,0.00,-RA,OVC,0.00,WeatherDisplay:10.37,2013-04-25 23:26:00,
2013-04-25 17:31:00,62.8,21.1,29.93,SSW,204,3.5,3.5,20,0.00,-RA,OVC,0.00,WeatherDisplay:10.37,2013-04-25 23:31:00,
2013-04-25 17:36:00,62.9,21.2,29.93,SW,229,5.8,5.8,20,0.00,-RA,OVC,0.00,WeatherDisplay:10.37,2013-04-25 23:36:00,
2013-04-25 17:41:00,63.0,21.2,29.93,SSW,205,4.6,4.6,20,0.00,-RA,OVC,0.00,WeatherDisplay:10.37,2013-04-25 23:41:00,
2013-04-25 17:46:00,63.0,22.4,29.93,SSW,205,3.5,3.5,21,0.00,-RA,OVC,0.00,WeatherDisplay:10.37,2013-04-25 23:46:00,
2013-04-25 17:51:00,63.0,21.2,29.93,SW,227,3.5,3.5,20,0.00,-RA,OVC,0.00,WeatherDisplay:10.37,2013-04-25 23:51:00,
2013-04-25 17:56:00,62.9,22.3,29.94,SW,229,6.9,6.9,21,0.00,-RA,OVC,0.00,WeatherDisplay:10.37,2013-04-25 23:56:00,
2013-04-25 18:01:00,62.8,22.2,29.94,SW,230,2.3,0.0,21,0.00,-RA,OVC,0.00,WeatherDisplay:10.37,2013-04-26 00:01:00,
2013-04-25 18:06:00,62.7,22.2,29.94,SW,235,3.5,0.0,21,0.00,-RA,OVC,0.00,WeatherDisplay:10.37,2013-04-26 00:06:00,
2013-04-25 18:11:00,62.6,22.1,29.94,SW,235,3.0,3.0,21,0.00,-RA,OVC,0.00,WeatherDisplay:10.37,2013-04-26 00:11:00,
2013-04-25 18:16:00,62.5,22.0,29.94,SW,235,1.1,0.0,21,0.00,-RA,OVC,0.00,WeatherDisplay:10.37,2013-04-26 00:16:00,
2013-04-25 18:21:00,62.6,22.1,29.94,SW,235,3.5,3.5,21,0.00,-RA,OVC,0.00,WeatherDisplay:10.37,2013-04-26 00:21:00,
2013-04-25 18:26:00,62.7,23.3,29.94,SW,235,2.3,2.3,22,0.00,-RA,OVC,0.00,WeatherDisplay:10.37,2013-04-26 00:26:00,
2013-04-25 18:31:00,62.7,22.2,29.94,SW,235,3.5,3.5,21,0.00,-RA,OVC,0.00,WeatherDisplay:10.37,2013-04-26 00:31:00,
2013-04-25 18:36:00,62.4,23.0,29.93,SW,232,1.1,0.0,22,0.00,-RA,OVC,0.00,WeatherDisplay:10.37,2013-04-26 00:36:00,
2013-04-25 18:41:00,62.1,23.8,29.93,SW,231,3.5,3.5,23,0.00,-RA,OVC,0.00,WeatherDisplay:10.37,2013-04-26 00:41:00,
2013-04-25 18:46:00,61.8,23.6,29.93,SW,231,0.0,0.0,23,0.00,-RA,OVC,0.00,WeatherDisplay:10.37,2013-04-26 00:46:00,
2013-04-25 18:51:00,61.7,23.5,29.93,SW,231,1.1,1.1,23,0.00,-RA,OVC,0.00,WeatherDisplay:10.37,2013-04-26 00:51:00,
2013-04-25 18:56:00,61.6,23.4,29.93,SW,231,1.1,0.0,23,0.00,-RA,OVC,0.00,WeatherDisplay:10.37,2013-04-26 00:56:00,
2013-04-25 19:01:00,61.4,23.2,29.93,SW,231,0.0,0.0,23,0.00,-RA,OVC,0.00,WeatherDisplay:10.37,2013-04-26 01:01:00,
2013-04-25 19:06:00,61.1,23.0,29.93,SW,231,0.0,0.0,23,0.00,-RA,OVC,0.00,WeatherDisplay:10.37,2013-04-26 01:06:00,
2013-04-25 19:11:00,60.9,23.8,29.93,SW,231,1.1,0.0,24,0.00,-RA,OVC,0.00,WeatherDisplay:10.37,2013-04-26 01:11:00,
2013-04-25 19:16:00,60.7,24.6,29.93,SW,231,1.1,0.0,25,0.00,-RA,OVC,0.00,WeatherDisplay:10.37,2013-04-26 01:16:00,
2013-04-25 19:21:00,60.5,23.5,29.93,SW,231,1.1,1.1,24,0.00,-RA,OVC,0.00,WeatherDisplay:10.37,2013-04-26 01:21:00,
2013-04-25 19:26:00,60.3,23.3,29.93,SW,231,0.0,0.2,24,0.00,-RA,OVC,0.00,WeatherDisplay:10.37,2013-04-26 01:26:00,
2013-04-25 19:31:00,60.0,24.0,29.93,SW,231,1.1,1.1,25,0.00,-RA,OVC,0.00,WeatherDisplay:10.37,2013-04-26 01:31:00,
2013-04-25 19:36:00,59.6,23.7,29.93,SW,231,1.1,1.1,25,0.00,-RA,OVC,0.00,WeatherDisplay:10.37,2013-04-26 01:36:00,
2013-04-25 19:41:00,59.1,23.3,29.93,SW,231,0.0,0.1,25,0.00,-RA,OVC,0.00,WeatherDisplay:10.37,2013-04-26 01:41:00,
2013-04-25 19:46:00,58.1,29.8,29.93,South,186,11.5,11.5,34,0.00,-RA,OVC,0.00,WeatherDisplay:10.37,2013-04-26 01:46:00,
2013-04-25 19:51:00,57.1,31.0,29.93,SSE,153,6.9,6.9,37,0.00,-RA,OVC,0.00,WeatherDisplay:10.37,2013-04-26 01:51:00,
2013-04-25 19:56:00,56.5,31.8,29.94,SSE,150,3.5,3.5,39,0.00,-RA,OVC,0.00,WeatherDisplay:10.37,2013-04-26 01:56:00,
2013-04-25 20:01:00,56.0,32.0,29.94,SE,140,3.5,3.5,40,0.00,-RA,OVC,0.00,WeatherDisplay:10.37,2013-04-26 02:01:00,
2013-04-25 20:06:00,55.5,31.5,29.94,SE,144,3.5,3.5,40,0.00,-RA,OVC,0.00,WeatherDisplay:10.37,2013-04-26 02:06:00,
2013-04-25 20:11:00,55.2,31.3,29.94,South,184,6.9,6.9,40,0.00,-RA,OVC,0.00,WeatherDisplay:10.37,2013-04-26 02:11:00,
2013-04-25 20:16:00,54.8,30.9,29.94,South,184,2.3,2.3,40,0.00,-RA,OVC,0.00,WeatherDisplay:10.37,2013-04-26 02:16:00,
2013-04-25 20:21:00,54.4,31.8,29.94,South,184,2.0,2.0,42,0.00,-RA,OVC,0.00,WeatherDisplay:10.37,2013-04-26 02:21:00,
2013-04-25 20:26:00,54.1,31.5,29.94,South,181,1.1,1.4,42,0.00,-RA,OVC,0.00,WeatherDisplay:10.37,2013-04-26 02:26:00,
2013-04-25 20:31:00,53.7,31.7,29.94,SE,142,2.3,2.3,43,0.00,-RA,OVC,0.00,WeatherDisplay:10.37,2013-04-26 02:31:00,
2013-04-25 20:36:00,53.5,31.5,29.94,SE,144,3.5,3.5,43,0.00,-RA,OVC,0.00,WeatherDisplay:10.37,2013-04-26 02:36:00,
2013-04-25 20:41:00,53.3,31.4,29.94,SE,144,2.3,2.3,43,0.00,-RA,OVC,0.00,WeatherDisplay:10.37,2013-04-26 02:41:00,
2013-04-25 20:46:00,53.3,31.4,29.94,SE,144,4.0,4.0,43,0.00,-RA,OVC,0.00,WeatherDisplay:10.37,2013-04-26 02:46:00,
2013-04-25 20:51:00,53.2,31.3,29.94,SSE,148,3.5,3.5,43,0.00,-RA,OVC,0.00,WeatherDisplay:10.37,2013-04-26 02:51:00,
2013-04-25 20:56:00,53.1,31.2,29.94,SSE,148,3.5,3.5,43,0.00,-RA,OVC,0.00,WeatherDisplay:10.37,2013-04-26 02:56:00,
2013-04-25 21:01:00,52.9,30.4,29.94,SSE,155,3.5,3.5,42,0.00,-RA,OVC,0.00,WeatherDisplay:10.37,2013-04-26 03:01:00,
2013-04-25 21:06:00,52.8,30.3,29.94,SSE,154,0.0,0.8,42,0.00,-RA,OVC,0.00,WeatherDisplay:10.37,2013-04-26 03:06:00,
2013-04-25 21:11:00,52.7,30.2,29.94,SE,131,3.5,3.5,42,0.00,-RA,OVC,0.00,WeatherDisplay:10.37,2013-04-26 03:11:00,
2013-04-25 21:16:00,52.6,29.5,29.94,SE,136,4.6,4.6,41,0.00,-RA,OVC,0.00,WeatherDisplay:10.37,2013-04-26 03:16:00,
2013-04-25 21:21:00,52.5,28.8,29.94,SE,136,3.5,3.5,40,0.00,-RA,OVC,0.00,WeatherDisplay:10.37,2013-04-26 03:21:00,
2013-04-25 21:26:00,52.6,28.3,29.94,SE,133,4.6,4.6,39,0.00,-RA,OVC,0.00,WeatherDisplay:10.37,2013-04-26 03:26:00,
2013-04-25 21:31:00,52.7,28.4,29.94,SE,133,3.5,3.5,39,0.00,-RA,OVC,0.00,WeatherDisplay:10.37,2013-04-26 03:31:00,
2013-04-25 21:36:00,52.8,28.5,30.00,SE,130,5.8,5.8,39,0.00,-RA,OVC,0.00,WeatherDisplay:10.37,2013-04-26 03:36:00,
2013-04-25 21:41:00,52.8,27.9,30.00,SE,144,3.5,3.5,38,0.00,-RA,OVC,0.00,WeatherDisplay:10.37,2013-04-26 03:41:00,
2013-04-25 21:46:00,52.8,27.9,30.00,SE,138,2.3,2.3,38,0.00,-RA,OVC,0.00,WeatherDisplay:10.37,2013-04-26 03:46:00,
2013-04-25 21:51:00,52.6,27.7,30.00,SE,140,2.3,2.3,38,0.00,-RA,OVC,0.00,WeatherDisplay:10.37,2013-04-26 03:51:00,
2013-04-25 21:56:00,52.4,27.5,30.00,SE,140,4.6,4.6,38,0.00,-RA,OVC,0.00,WeatherDisplay:10.37,2013-04-26 03:56:00,
2013-04-25 22:01:00,52.4,27.5,30.00,SE,140,3.0,3.0,38,0.00,-RA,OVC,0.00,WeatherDisplay:10.37,2013-04-26 04:01:00,
2013-04-25 22:06:00,52.1,27.9,30.00,SE,140,3.5,3.5,39,0.00,-RA,OVC,0.00,WeatherDisplay:10.37,2013-04-26 04:06:00,
2013-04-25 22:11:00,51.9,27.7,30.00,SE,139,3.5,3.5,39,0.00,-RA,OVC,0.00,WeatherDisplay:10.37,2013-04-26 04:11:00,
2013-04-25 22:16:00,51.6,27.4,30.00,SE,139,3.5,3.5,39,0.00,-RA,OVC,0.00,WeatherDisplay:10.37,2013-04-26 04:16:00,
2013-04-25 22:21:00,51.4,27.2,30.00,SE,139,2.0,2.0,39,0.00,-RA,OVC,0.00,WeatherDisplay:10.37,2013-04-26 04:21:00,
2013-04-25 22:26:00,51.3,27.2,30.01,SE,139,3.5,3.5,39,0.00,-RA,OVC,0.00,WeatherDisplay:10.37,2013-04-26 04:26:00,
2013-04-25 22:31:00,51.3,26.5,30.01,ESE,122,4.6,4.6,38,0.00,-RA,OVC,0.00,WeatherDisplay:10.37,2013-04-26 04:31:00,
2013-04-25 22:36:00,51.5,26.7,30.01,ESE,123,3.5,3.5,38,0.00,-RA,OVC,0.00,WeatherDisplay:10.37,2013-04-26 04:36:00,
2013-04-25 22:41:00,51.5,26.7,30.01,ESE,123,2.3,2.3,38,0.00,-RA,OVC,0.00,WeatherDisplay:10.37,2013-04-26 04:41:00,
2013-04-25 22:46:00,51.3,26.5,30.01,ESE,123,3.5,3.5,38,0.00,-RA,OVC,0.00,WeatherDisplay:10.37,2013-04-26 04:46:00,
2013-04-25 22:51:00,51.2,25.8,30.01,ESE,123,3.5,3.5,37,0.00,-RA,OVC,0.00,WeatherDisplay:10.37,2013-04-26 04:51:00,
2013-04-25 22:56:00,51.1,25.0,30.01,ESE,123,3.5,3.5,36,0.00,-RA,OVC,0.00,WeatherDisplay:10.37,2013-04-26 04:56:00,
2013-04-25 23:01:00,51.1,25.0,30.01,ESE,123,3.5,3.5,36,0.00,-RA,OVC,0.00,WeatherDisplay:10.37,2013-04-26 05:01:00,
2013-04-25 23:06:00,51.1,25.0,30.01,ESE,123,3.5,3.5,36,0.00,-RA,OVC,0.00,WeatherDisplay:10.37,2013-04-26 05:06:00,
2013-04-25 23:11:00,51.0,24.3,30.01,ESE,123,2.0,2.0,35,0.00,-RA,OVC,0.00,WeatherDisplay:10.37,2013-04-26 05:11:00,
2013-04-25 23:16:00,50.9,24.2,30.01,ESE,123,3.5,3.5,35,0.00,-RA,OVC,0.00,WeatherDisplay:10.37,2013-04-26 05:16:00,
2013-04-25 23:21:00,50.8,24.1,30.01,ESE,123,3.5,3.5,35,0.00,-RA,OVC,0.00,WeatherDisplay:10.37,2013-04-26 05:21:00,
2013-04-25 23:26:00,50.7,24.0,30.01,ESE,123,2.3,2.3,35,0.00,-RA,OVC,0.00,WeatherDisplay:10.37,2013-04-26 05:26:00,
2013-04-25 23:31:00,50.4,24.4,30.01,ESE,123,0.0,0.0,36,0.00,-RA,OVC,0.00,WeatherDisplay:10.37,2013-04-26 05:31:00,
2013-04-25 23:36:00,50.1,24.2,30.01,ESE,123,0.0,0.0,36,0.00,-RA,OVC,0.00,WeatherDisplay:10.37,2013-04-26 05:36:00,
2013-04-25 23:41:00,49.6,23.7,30.01,ESE,123,0.0,0.0,36,0.00,-RA,OVC,0.00,WeatherDisplay:10.37,2013-04-26 05:41:00,
2013-04-25 23:46:00,49.2,24.0,30.01,ESE,123,0.0,0.0,37,0.00,-RA,OVC,0.00,WeatherDisplay:10.37,2013-04-26 05:46:00,
2013-04-25 23:51:00,48.7,24.2,30.01,ESE,123,0.0,0.0,38,0.00,-RA,OVC,0.00,WeatherDisplay:10.37,2013-04-26 05:51:00,
2013-04-25 23:56:00,48.3,25.1,30.01,ESE,123,0.0,0.0,40,0.00,-RA,OVC,0.00,WeatherDisplay:10.37,2013-04-26 05:56:00,